sensor_id;sensor_type;location;lat;lon;timestamp;pressure;altitude;pressure_sealevel;temperature;humidity
25664;BME280;13522;50.018;20.014;2023-12-20T00:01:37;98310.05;;;7.46;59.32
25664;BME280;13522;50.018;20.014;2023-12-20T00:04:50;98311.84;;;7.46;59.22
25664;BME280;13522;50.018;20.014;2023-12-20T00:08:03;98302.80;;;7.39;59.54
25664;BME280;13522;50.018;20.014;2023-12-20T00:11:16;98304.04;;;7.35;59.65
25664;BME280;13522;50.018;20.014;2023-12-20T00:14:28;98301.79;;;7.30;59.79
25664;BME280;13522;50.018;20.014;2023-12-20T00:17:41;98297.05;;;7.24;60.06
25664;BME280;13522;50.018;20.014;2023-12-20T00:20:54;98297.30;;;7.21;60.27
25664;BME280;13522;50.018;20.014;2023-12-20T00:24:07;98290.36;;;7.20;60.43
25664;BME280;13522;50.018;20.014;2023-12-20T00:27:20;98292.44;;;7.17;60.59
25664;BME280;13522;50.018;20.014;2023-12-20T00:30:32;98291.14;;;7.11;61.05
25664;BME280;13522;50.018;20.014;2023-12-20T00:33:45;98294.34;;;7.05;61.30
25664;BME280;13522;50.018;20.014;2023-12-20T00:36:57;98287.05;;;6.97;62.12
25664;BME280;13522;50.018;20.014;2023-12-20T00:40:11;98284.13;;;6.91;62.15
25664;BME280;13522;50.018;20.014;2023-12-20T00:43:24;98278.01;;;6.90;61.66
25664;BME280;13522;50.018;20.014;2023-12-20T00:46:36;98265.52;;;6.92;61.43
25664;BME280;13522;50.018;20.014;2023-12-20T00:49:49;98241.65;;;7.03;59.53
25664;BME280;13522;50.018;20.014;2023-12-20T00:53:01;98246.58;;;7.27;59.20
25664;BME280;13522;50.018;20.014;2023-12-20T00:56:14;98251.86;;;7.27;59.55
25664;BME280;13522;50.018;20.014;2023-12-20T00:59:26;98261.73;;;7.25;59.91
25664;BME280;13522;50.018;20.014;2023-12-20T01:02:40;98258.13;;;7.26;60.04
25664;BME280;13522;50.018;20.014;2023-12-20T01:05:54;98256.45;;;7.25;59.91
25664;BME280;13522;50.018;20.014;2023-12-20T01:09:07;98249.22;;;7.27;59.81
25664;BME280;13522;50.018;20.014;2023-12-20T01:12:20;98250.20;;;7.26;60.27
25664;BME280;13522;50.018;20.014;2023-12-20T01:15:32;98258.67;;;7.20;60.88
25664;BME280;13522;50.018;20.014;2023-12-20T01:18:45;98256.17;;;7.19;60.75
25664;BME280;13522;50.018;20.014;2023-12-20T01:21:58;98262.27;;;7.19;60.80
25664;BME280;13522;50.018;20.014;2023-12-20T01:25:11;98248.64;;;7.14;61.28
25664;BME280;13522;50.018;20.014;2023-12-20T01:28:24;98234.73;;;7.12;61.04
25664;BME280;13522;50.018;20.014;2023-12-20T01:31:36;98232.23;;;7.11;60.97
25664;BME280;13522;50.018;20.014;2023-12-20T01:34:49;98227.77;;;7.11;61.02
25664;BME280;13522;50.018;20.014;2023-12-20T01:38:04;98226.81;;;7.12;60.48
25664;BME280;13522;50.018;20.014;2023-12-20T01:41:19;98207.22;;;7.05;61.45
25664;BME280;13522;50.018;20.014;2023-12-20T01:44:31;98199.25;;;6.95;61.27
25664;BME280;13522;50.018;20.014;2023-12-20T01:47:44;98187.42;;;6.90;61.87
25664;BME280;13522;50.018;20.014;2023-12-20T01:50:57;98186.58;;;6.89;61.00
25664;BME280;13522;50.018;20.014;2023-12-20T01:54:14;98178.11;;;6.86;61.40
25664;BME280;13522;50.018;20.014;2023-12-20T01:57:26;98171.88;;;6.87;60.85
25664;BME280;13522;50.018;20.014;2023-12-20T02:00:39;98173.98;;;6.93;59.78
25664;BME280;13522;50.018;20.014;2023-12-20T02:03:54;98174.67;;;6.95;59.59
25664;BME280;13522;50.018;20.014;2023-12-20T02:07:10;98167.01;;;6.92;59.96
25664;BME280;13522;50.018;20.014;2023-12-20T02:10:24;98153.40;;;6.87;60.16
25664;BME280;13522;50.018;20.014;2023-12-20T02:13:37;98145.48;;;6.87;58.73
25664;BME280;13522;50.018;20.014;2023-12-20T02:16:49;98152.16;;;6.91;58.13
25664;BME280;13522;50.018;20.014;2023-12-20T02:20:02;98146.73;;;6.92;57.92
25664;BME280;13522;50.018;20.014;2023-12-20T02:23:16;98137.72;;;6.95;57.21
25664;BME280;13522;50.018;20.014;2023-12-20T02:26:29;98133.84;;;6.99;56.54
25664;BME280;13522;50.018;20.014;2023-12-20T02:29:41;98135.95;;;7.15;55.42
25664;BME280;13522;50.018;20.014;2023-12-20T02:32:54;98114.83;;;7.24;55.07
25664;BME280;13522;50.018;20.014;2023-12-20T02:36:08;98124.14;;;7.28;54.64
25664;BME280;13522;50.018;20.014;2023-12-20T02:39:21;98120.25;;;7.32;54.21
25664;BME280;13522;50.018;20.014;2023-12-20T02:42:34;98123.84;;;7.41;53.60
25664;BME280;13522;50.018;20.014;2023-12-20T02:45:46;98113.42;;;7.39;53.95
25664;BME280;13522;50.018;20.014;2023-12-20T02:48:59;98101.61;;;7.34;53.81
25664;BME280;13522;50.018;20.014;2023-12-20T02:52:12;98109.83;;;7.31;53.86
25664;BME280;13522;50.018;20.014;2023-12-20T02:55:27;98105.10;;;7.25;54.68
25664;BME280;13522;50.018;20.014;2023-12-20T02:58:40;98114.67;;;7.16;54.96
25664;BME280;13522;50.018;20.014;2023-12-20T03:01:52;98127.33;;;7.13;54.94
25664;BME280;13522;50.018;20.014;2023-12-20T03:05:06;98136.91;;;7.14;54.53
25664;BME280;13522;50.018;20.014;2023-12-20T03:08:19;98133.42;;;7.13;54.47
25664;BME280;13522;50.018;20.014;2023-12-20T03:11:34;98122.05;;;7.13;54.28
25664;BME280;13522;50.018;20.014;2023-12-20T03:14:49;98120.22;;;7.13;54.61
25664;BME280;13522;50.018;20.014;2023-12-20T03:18:02;98123.55;;;7.15;54.24
25664;BME280;13522;50.018;20.014;2023-12-20T03:21:15;98128.43;;;7.10;54.53
25664;BME280;13522;50.018;20.014;2023-12-20T03:24:28;98099.38;;;6.91;55.04
25664;BME280;13522;50.018;20.014;2023-12-20T03:27:40;98123.54;;;6.96;56.22
25664;BME280;13522;50.018;20.014;2023-12-20T03:30:54;98114.66;;;6.97;54.93
25664;BME280;13522;50.018;20.014;2023-12-20T03:34:06;98119.50;;;6.92;55.75
25664;BME280;13522;50.018;20.014;2023-12-20T03:37:19;98127.56;;;6.90;55.41
25664;BME280;13522;50.018;20.014;2023-12-20T03:40:32;98124.78;;;6.92;55.54
25664;BME280;13522;50.018;20.014;2023-12-20T03:43:45;98124.52;;;6.95;56.10
25664;BME280;13522;50.018;20.014;2023-12-20T03:46:57;98133.00;;;6.98;55.79
25664;BME280;13522;50.018;20.014;2023-12-20T03:50:10;98108.25;;;6.90;55.79
25664;BME280;13522;50.018;20.014;2023-12-20T03:53:23;98135.80;;;7.07;55.67
25664;BME280;13522;50.018;20.014;2023-12-20T03:56:38;98130.92;;;7.12;55.75
25664;BME280;13522;50.018;20.014;2023-12-20T03:59:50;98120.91;;;7.15;56.58
25664;BME280;13522;50.018;20.014;2023-12-20T04:03:06;98135.66;;;7.18;55.61
25664;BME280;13522;50.018;20.014;2023-12-20T04:06:20;98124.69;;;7.22;55.26
25664;BME280;13522;50.018;20.014;2023-12-20T04:09:34;98110.50;;;7.23;55.57
25664;BME280;13522;50.018;20.014;2023-12-20T04:12:47;98112.88;;;7.26;55.43
25664;BME280;13522;50.018;20.014;2023-12-20T04:16:00;98116.36;;;7.27;56.22
25664;BME280;13522;50.018;20.014;2023-12-20T04:19:12;98108.00;;;7.31;55.88
25664;BME280;13522;50.018;20.014;2023-12-20T04:22:25;98100.77;;;7.33;56.06
25664;BME280;13522;50.018;20.014;2023-12-20T04:25:38;98111.34;;;7.33;56.31
25664;BME280;13522;50.018;20.014;2023-12-20T04:28:50;98106.05;;;7.33;55.83
25664;BME280;13522;50.018;20.014;2023-12-20T04:32:04;98106.89;;;7.34;56.11
25664;BME280;13522;50.018;20.014;2023-12-20T04:35:17;98111.34;;;7.33;56.18
25664;BME280;13522;50.018;20.014;2023-12-20T04:38:29;98114.97;;;7.32;56.18
25664;BME280;13522;50.018;20.014;2023-12-20T04:41:42;98116.91;;;7.30;56.33
25664;BME280;13522;50.018;20.014;2023-12-20T04:44:56;98120.52;;;7.29;57.52
25664;BME280;13522;50.018;20.014;2023-12-20T04:48:09;98125.23;;;7.26;58.24
25664;BME280;13522;50.018;20.014;2023-12-20T04:51:22;98121.06;;;7.23;57.90
25664;BME280;13522;50.018;20.014;2023-12-20T04:54:35;98122.89;;;7.23;57.78
25664;BME280;13522;50.018;20.014;2023-12-20T04:57:49;98134.70;;;7.19;59.13
25664;BME280;13522;50.018;20.014;2023-12-20T05:01:05;98136.06;;;7.13;59.67
25664;BME280;13522;50.018;20.014;2023-12-20T05:04:18;98137.05;;;7.12;61.27
25664;BME280;13522;50.018;20.014;2023-12-20T05:07:31;98139.69;;;7.12;62.44
25664;BME280;13522;50.018;20.014;2023-12-20T05:10:44;98137.05;;;7.12;63.37
25664;BME280;13522;50.018;20.014;2023-12-20T05:13:59;98121.05;;;7.04;65.61
25664;BME280;13522;50.018;20.014;2023-12-20T05:17:12;98127.17;;;7.05;67.40
25664;BME280;13522;50.018;20.014;2023-12-20T05:20:26;98144.11;;;7.02;69.75
25664;BME280;13522;50.018;20.014;2023-12-20T05:23:40;98143.95;;;6.94;71.27
25664;BME280;13522;50.018;20.014;2023-12-20T05:26:59;98150.76;;;6.87;73.08
25664;BME280;13522;50.018;20.014;2023-12-20T05:30:13;98151.30;;;6.81;75.31
25664;BME280;13522;50.018;20.014;2023-12-20T05:33:29;98140.44;;;6.74;77.77
25664;BME280;13522;50.018;20.014;2023-12-20T05:36:42;98123.48;;;6.67;80.12
25664;BME280;13522;50.018;20.014;2023-12-20T05:39:57;98123.88;;;6.63;81.67
25664;BME280;13522;50.018;20.014;2023-12-20T05:43:11;98132.89;;;6.60;82.42
25664;BME280;13522;50.018;20.014;2023-12-20T05:46:26;98130.92;;;6.53;84.80
25664;BME280;13522;50.018;20.014;2023-12-20T05:49:40;98128.96;;;6.45;85.98
25664;BME280;13522;50.018;20.014;2023-12-20T05:52:53;98126.01;;;6.39;88.75
25664;BME280;13522;50.018;20.014;2023-12-20T05:56:08;98138.31;;;6.29;90.54
25664;BME280;13522;50.018;20.014;2023-12-20T05:59:24;98121.80;;;6.27;91.51
25664;BME280;13522;50.018;20.014;2023-12-20T06:02:38;98119.86;;;6.29;91.83
25664;BME280;13522;50.018;20.014;2023-12-20T06:05:53;98125.66;;;6.23;92.78
25664;BME280;13522;50.018;20.014;2023-12-20T06:09:09;98133.56;;;6.23;93.81
25664;BME280;13522;50.018;20.014;2023-12-20T17:58:13;98103.17;;;4.73;100.00
25664;BME280;13522;50.018;20.014;2023-12-20T20:54:44;98060.97;;;5.06;95.65
25664;BME280;13522;50.018;20.014;2023-12-20T20:58:15;98067.65;;;5.10;95.54
25664;BME280;13522;50.018;20.014;2023-12-20T21:01:29;98055.47;;;5.09;95.40
25664;BME280;13522;50.018;20.014;2023-12-20T21:04:43;98054.76;;;5.07;95.47
25664;BME280;13522;50.018;20.014;2023-12-20T21:07:58;98052.50;;;5.02;95.28
25664;BME280;13522;50.018;20.014;2023-12-20T21:11:11;98044.27;;;4.96;96.32
25664;BME280;13522;50.018;20.014;2023-12-20T21:14:26;98046.69;;;4.88;96.69
25664;BME280;13522;50.018;20.014;2023-12-20T21:17:39;98061.89;;;4.84;96.82
25664;BME280;13522;50.018;20.014;2023-12-20T21:20:54;98050.79;;;4.81;96.87
25664;BME280;13522;50.018;20.014;2023-12-20T21:24:34;98057.47;;;4.85;96.40
25664;BME280;13522;50.018;20.014;2023-12-20T21:27:47;98053.02;;;4.85;95.69
25664;BME280;13522;50.018;20.014;2023-12-20T21:31:00;98057.20;;;4.88;95.61
25664;BME280;13522;50.018;20.014;2023-12-20T21:34:13;98068.07;;;4.94;95.60
25664;BME280;13522;50.018;20.014;2023-12-20T21:37:26;98048.45;;;4.98;94.72
25664;BME280;13522;50.018;20.014;2023-12-20T21:40:39;98047.37;;;5.01;94.48
25664;BME280;13522;50.018;20.014;2023-12-20T21:43:54;98057.39;;;5.07;94.70
25664;BME280;13522;50.018;20.014;2023-12-20T21:47:07;98033.70;;;5.07;94.63
25664;BME280;13522;50.018;20.014;2023-12-20T21:50:20;98032.73;;;5.08;94.37
25664;BME280;13522;50.018;20.014;2023-12-20T21:53:33;98043.52;;;5.05;95.20
25664;BME280;13522;50.018;20.014;2023-12-20T21:56:46;98047.94;;;5.04;95.09
25664;BME280;13522;50.018;20.014;2023-12-20T22:00:00;98053.20;;;5.04;95.33
25664;BME280;13522;50.018;20.014;2023-12-20T22:03:19;98063.86;;;5.03;95.29
25664;BME280;13522;50.018;20.014;2023-12-20T22:06:32;98060.39;;;5.02;95.20
25664;BME280;13522;50.018;20.014;2023-12-20T22:09:45;98058.70;;;5.01;95.77
25664;BME280;13522;50.018;20.014;2023-12-20T22:13:01;98045.05;;;5.07;94.95
25664;BME280;13522;50.018;20.014;2023-12-20T22:16:17;98052.13;;;5.07;95.11
25664;BME280;13522;50.018;20.014;2023-12-20T22:19:31;98047.67;;;5.07;95.03
25664;BME280;13522;50.018;20.014;2023-12-20T22:22:44;98042.41;;;5.07;95.63
25664;BME280;13522;50.018;20.014;2023-12-20T22:25:57;98046.86;;;5.07;95.94
25664;BME280;13522;50.018;20.014;2023-12-20T22:29:12;98045.17;;;5.06;96.19
25664;BME280;13522;50.018;20.014;2023-12-20T22:32:27;98037.15;;;5.07;95.74
25664;BME280;13522;50.018;20.014;2023-12-20T22:35:40;98041.60;;;5.07;96.09
25664;BME280;13522;50.018;20.014;2023-12-20T22:38:53;98046.36;;;5.13;95.82
25664;BME280;13522;50.018;20.014;2023-12-20T22:42:07;98041.80;;;5.15;96.19
25664;BME280;13522;50.018;20.014;2023-12-20T22:45:21;98032.22;;;5.14;95.92
25664;BME280;13522;50.018;20.014;2023-12-20T22:48:35;98033.06;;;5.14;96.54
25664;BME280;13522;50.018;20.014;2023-12-20T22:51:49;98028.38;;;5.18;96.27
25664;BME280;13522;50.018;20.014;2023-12-20T22:55:03;98025.23;;;5.24;96.33
25664;BME280;13522;50.018;20.014;2023-12-20T22:58:17;98032.86;;;5.27;96.08
25664;BME280;13522;50.018;20.014;2023-12-20T23:01:30;98022.60;;;5.24;96.49
25664;BME280;13522;50.018;20.014;2023-12-20T23:04:43;98024.52;;;5.22;96.54
25664;BME280;13522;50.018;20.014;2023-12-20T23:07:58;98015.65;;;5.23;96.07
25664;BME280;13522;50.018;20.014;2023-12-20T23:11:11;98012.31;;;5.21;96.22
25664;BME280;13522;50.018;20.014;2023-12-20T23:14:24;98017.58;;;5.21;96.85
25664;BME280;13522;50.018;20.014;2023-12-20T23:17:37;98014.95;;;5.21;96.90
25664;BME280;13522;50.018;20.014;2023-12-20T23:20:51;98009.11;;;5.17;97.56
25664;BME280;13522;50.018;20.014;2023-12-20T23:24:05;98007.31;;;5.18;97.56
25664;BME280;13522;50.018;20.014;2023-12-20T23:27:18;97991.33;;;5.10;97.31
25664;BME280;13522;50.018;20.014;2023-12-20T23:30:31;98004.41;;;5.21;97.31
25664;BME280;13522;50.018;20.014;2023-12-20T23:33:44;98007.75;;;5.23;97.35
25664;BME280;13522;50.018;20.014;2023-12-20T23:37:00;97996.00;;;5.27;97.32
25664;BME280;13522;50.018;20.014;2023-12-20T23:40:13;97996.00;;;5.27;97.49
25664;BME280;13522;50.018;20.014;2023-12-20T23:43:26;98001.03;;;5.30;97.39
25664;BME280;13522;50.018;20.014;2023-12-20T23:46:38;97991.45;;;5.29;96.94
25664;BME280;13522;50.018;20.014;2023-12-20T23:49:51;97976.12;;;5.34;96.88
25664;BME280;13522;50.018;20.014;2023-12-20T23:53:05;97990.23;;;5.33;97.33
25664;BME280;13522;50.018;20.014;2023-12-20T23:56:19;97983.45;;;5.31;97.08
25664;BME280;13522;50.018;20.014;2023-12-20T23:59:35;97988.95;;;5.27;97.48
